Brunswick, Michigan
Current Conditions -  °F | °C
As of 8:51 PM on Monday 20 Oct 2014 (Local Time) from KFFX Reporting Station
Moderate Rain Moderate Rain  
Wind Chill: 42°   Ceiling: 2400
Heat Index: 46°   Visibility: 7mi
Dew Point: 45°   Wind: 9mph
Humidity: 93%   Direction: 330°NNW
Pressure: 29.94"   Gusts: NA
Location:  43.452°N, 86.1285°W
Report Text: KFFX 210051Z AUTO 33008KT 7SM RA BKN024 BKN032 OVC050 08/07 A2994 RMK AO2 T00800070
Loading
Personal Weather Stations






























Interactive Weather Map
Tropical Storm Tracking
New forecast layout! Learn more

10-Day Weather Forecast

Advertisements
Track Severe Weather on mobile